KR-0363 weather

Sharp Central Star Apartments Heliports
Busan, Busan Gwang'yeogsi, South Korea

Public forecast

Using degrees Celsius for public forecast. Weather courtesy of forecast.io.

METAR (pilot weather report)

Closest report is Gimhae International Airport, 6.3 nm (11.6 km) WNW. Retrieved 2019/09/23 02:00 UTC (25 minutes ago):

RKPK 230200Z 28003KT 9999 SCT040 OVC070 21/14 Q1014

TAF (pilot weather forecast)

Forecast is more than 12 hours old.

Closest forecast is Gimhae International Airport, 6.3 nm (11.6 km) WNW. Retrieved 2019/09/22 00:00 UTC (1 day ago):

TAF RKPK 222300Z 2300/2406 33006KT 9999 BKN050 TX25/2306Z TN15/2320Z BECMG 2303/2304 20006KT SCT050 BECMG 2310/2311 34006KT